オークランド の空港の天気 - METARとTAF

オークランド国際空港 ( NZAA / AKL ) - ニュージーランド オークランド|オークランド
飛行場実況気象(Metar)
観測時間08/18 22:30 NZST (08/18 10:30 UTC)
風向・風速北東 3m/s
視程10km以上
天気現象
全天の8割程度の雲 雲底高度 180m
全天の8割程度の雲 雲底高度 2290m
気温14℃
湿度94%
気圧996hPa
METARNZAA 181030Z AUTO 05006KT 9999 BKN006/// BKN075/// 14/13 Q0996 TEMPO SCT006
過去の天気等 Google飛行場航空写真 Wunderground天気予報

過去48時間のMETAR

飛行場予報(TAF)
発表時間: 8/18 17:27 NZST (8/18 05:27 UTC)
予報対象時間: 18日18時 NZST ~ 19日18時 NZST
風向・風速東北東 5m/s
視程10km以上
天気現象弱い雨
全天の4割程度の雲 雲底高度 430m
18日18時 NZST ~ 18日24時 NZST に一時的に
視程6,000m
天気現象
全天の8割程度の雲 雲底高度 300m
18日22時 NZST ~ 18日24時 NZST に徐々に
風向・風速北北西 3m/s
19日0時 NZST ~ 19日10時 NZST に一時的に
全天の8割程度の雲 雲底高度 370m
19日8時 NZST ~ 19日10時 NZST に徐々に
風向・風速北北東 6m/s
19日10時 NZST ~ 19日18時 NZST に一時的に
視程6,000m
天気現象
全天の8割程度の雲 雲底高度 370m
TAF NZAA 180527Z 1806/1906 06010KT 9999 -RA SCT014
TEMPO 1806/1812 6000 RA BKN010
BECMG 1810/1812 33005KT
TEMPO 1812/1822 BKN012
BECMG 1820/1822 03012KT
TEMPO 1822/1906 6000 RA BKN012